Time;durP1;ratioP1;P1;durP2;ratioP2;P2;SDS_P1;SDS_P2;PMS_P1;PMS_P2;Temp;Humidity;BMP_temperature;BMP_pressure;BME280_temperature;BME280_humidity;BME280_pressure;Samples;Min_cycle;Max_cycle;Signal;HPM_P1;HPM_P2
2022/10/06 00:02:26;;;;;;;8.50;1.77;;;;;;;12.07;100.00;102124.28;5324039;27;20050;-87
2022/10/06 00:04:57;;;;;;;7.47;2.00;;;;;;;12.04;100.00;102129.00;5340991;27;20020;-88
2022/10/06 00:07:29;;;;;;;6.07;1.40;;;;;;;11.97;100.00;102134.00;5324833;27;20076;-88
2022/10/06 00:10:00;;;;;;;10.15;2.05;;;;;;;11.95;100.00;102143.13;5338024;27;20091;-88
2022/10/06 00:12:42;;;;;;;9.20;2.00;;;;;;;11.90;100.00;102149.69;5342733;27;20028;-88
2022/10/06 00:15:17;;;;;;;11.50;1.90;;;;;;;11.78;100.00;102157.75;5325920;27;20032;-88
2022/10/06 00:17:49;;;;;;;9.65;1.60;;;;;;;11.82;100.00;102167.25;5345707;27;20024;-88
2022/10/06 00:20:21;;;;;;;11.60;1.83;;;;;;;11.86;100.00;102164.22;5353450;27;20032;-88
2022/10/06 00:22:53;;;;;;;9.27;1.55;;;;;;;11.76;100.00;102168.56;5354533;27;20028;-88
2022/10/06 00:25:25;;;;;;;7.35;1.70;;;;;;;11.78;100.00;102173.78;5351666;27;20024;-88
2022/10/06 00:27:56;;;;;;;11.13;1.92;;;;;;;11.73;100.00;102175.00;5346183;27;20089;-88
2022/10/06 00:30:30;;;;;;;9.68;2.08;;;;;;;11.67;100.00;102183.47;5351353;27;20035;-90
2022/10/06 00:33:03;;;;;;;14.57;2.58;;;;;;;11.75;100.00;102193.59;5351480;27;20030;-89
2022/10/06 00:35:34;;;;;;;7.13;1.73;;;;;;;11.71;100.00;102184.97;5335627;27;20024;-89
2022/10/06 00:38:21;;;;;;;11.35;1.98;;;;;;;11.69;100.00;102188.72;5330644;27;20046;-91
2022/10/06 00:40:53;;;;;;;;;;;;;;;11.66;100.00;102191.63;5324899;27;20030;-88
2022/10/06 00:43:56;;;;;;;;;;;;;;;;;;;;;
2022/10/06 00:46:36;;;;;;;10.55;1.60;;;;;;;11.47;100.00;102176.97;5334779;27;41553;-88
2022/10/06 00:49:33;;;;;;;12.07;2.13;;;;;;;11.63;100.00;102197.22;5330118;27;20091;-87
2022/10/06 00:52:08;;;;;;;7.78;1.55;;;;;;;11.48;100.00;102196.53;5323699;27;20023;-88
2022/10/06 00:54:40;;;;;;;10.27;2.50;;;;;;;11.50;100.00;102206.16;5345065;27;20066;-88
2022/10/06 00:57:12;;;;;;;9.02;1.98;;;;;;;11.54;100.00;102212.13;5342113;27;20023;-87
2022/10/06 00:59:43;;;;;;;9.35;1.95;;;;;;;11.51;100.00;102215.00;5340929;27;20033;-87
2022/10/06 01:02:26;;;;;;;11.45;2.17;;;;;;;11.51;100.00;102221.19;5341612;27;20165;-87
2022/10/06 01:05:00;;;;;;;13.40;2.45;;;;;;;11.48;100.00;102218.78;5323600;27;20166;-87
2022/10/06 01:07:31;;;;;;;8.43;1.52;;;;;;;11.54;100.00;102218.31;5335567;27;20024;-88
2022/10/06 01:10:03;;;;;;;8.68;1.70;;;;;;;11.34;100.00;102222.47;5341256;27;20047;-88
2022/10/06 01:12:34;;;;;;;10.85;2.00;;;;;;;11.37;100.00;102228.56;5342443;27;20078;-88
2022/10/06 01:15:06;;;;;;;8.55;1.90;;;;;;;11.43;100.00;102239.66;5340185;27;20028;-88
2022/10/06 01:17:46;;;;;;;6.13;1.40;;;;;;;11.29;100.00;102242.47;5320809;27;20096;-88
2022/10/06 01:20:19;;;;;;;11.60;1.83;;;;;;;11.29;100.00;102258.47;5323544;27;20028;-87
2022/10/06 01:23:04;;;;;;;7.03;1.63;;;;;;;11.26;100.00;102253.38;5339319;27;20023;-88
2022/10/06 01:25:36;;;;;;;11.77;1.98;;;;;;;11.32;100.00;102247.59;5322862;27;20496;-88
2022/10/06 01:28:08;;;;;;;8.93;2.17;;;;;;;11.39;100.00;102261.34;5342199;27;20027;-88
2022/10/06 01:30:51;;;;;;;8.77;2.17;;;;;;;11.41;100.00;102267.41;5340384;27;20043;-88
2022/10/06 01:33:22;;;;;;;15.05;2.30;;;;;;;11.39;100.00;102269.34;5337650;27;20019;-88
2022/10/06 01:35:54;;;;;;;9.65;1.75;;;;;;;11.27;100.00;102263.97;5342743;27;20023;-88
2022/10/06 01:38:26;;;;;;;10.00;1.70;;;;;;;11.33;100.00;102268.84;5348192;27;20067;-88
2022/10/06 01:40:58;;;;;;;9.48;1.85;;;;;;;11.26;100.00;102275.59;5347534;27;20023;-87
2022/10/06 01:43:29;;;;;;;7.13;2.55;;;;;;;11.28;100.00;102284.34;5329750;27;20512;-87
2022/10/06 01:46:00;;;;;;;10.88;1.88;;;;;;;11.20;100.00;102297.41;5337263;27;20102;-87
2022/10/06 01:48:35;;;;;;;13.65;2.25;;;;;;;11.12;100.00;102278.44;5336657;27;20024;-87
2022/10/06 01:51:12;;;;;;;11.07;1.92;;;;;;;11.14;100.00;102301.38;5338647;27;20032;-87
2022/10/06 01:53:43;;;;;;;10.88;1.90;;;;;;;11.18;100.00;102304.69;5320143;27;20159;-87
2022/10/06 01:56:15;;;;;;;14.20;2.08;;;;;;;11.16;100.00;102291.44;5341485;27;20118;-87
2022/10/06 01:58:47;;;;;;;11.60;2.10;;;;;;;11.18;100.00;102303.81;5323092;27;20016;-87
2022/10/06 02:01:18;;;;;;;9.30;1.90;;;;;;;11.16;100.00;102315.47;5338091;27;20027;-87
2022/10/06 02:03:49;;;;;;;14.82;3.65;;;;;;;11.13;100.00;102313.03;5340151;27;20031;-87
2022/10/06 02:06:21;;;;;;;10.95;2.53;;;;;;;11.15;100.00;102303.09;5340180;27;20031;-87
2022/10/06 02:08:52;;;;;;;9.27;2.03;;;;;;;11.12;100.00;102297.13;5319974;27;20102;-87
2022/10/06 02:11:23;;;;;;;13.13;2.67;;;;;;;11.02;100.00;102299.59;5348556;27;20032;-88
2022/10/06 02:13:55;;;;;;;15.15;3.05;;;;;;;11.12;100.00;102314.00;5366332;27;20051;-87
2022/10/06 02:16:27;;;;;;;14.07;2.83;;;;;;;11.07;100.00;102308.13;5363161;27;20095;-86
2022/10/06 02:18:58;;;;;;;8.52;2.13;;;;;;;11.04;100.00;102318.16;5360852;27;20045;-87
2022/10/06 02:21:29;;;;;;;14.82;2.28;;;;;;;11.08;100.00;102323.19;5354331;27;20059;-87
2022/10/06 02:24:01;;;;;;;14.73;3.03;;;;;;;10.97;100.00;102326.63;5354750;27;20028;-87
2022/10/06 02:26:32;;;;;;;12.35;3.08;;;;;;;10.86;100.00;102323.84;5341061;27;20023;-88
2022/10/06 02:29:03;;;;;;;16.13;2.80;;;;;;;10.85;100.00;102337.31;5343220;27;20086;-87
2022/10/06 02:31:35;;;;;;;10.88;2.63;;;;;;;10.82;100.00;102348.19;5337693;27;20162;-87
2022/10/06 02:34:06;;;;;;;9.43;2.47;;;;;;;10.82;100.00;102348.19;5323739;27;20378;-87
2022/10/06 02:36:37;;;;;;;10.88;2.00;;;;;;;10.79;100.00;102349.28;5338079;27;20031;-87
2022/10/06 02:39:09;;;;;;;13.07;2.30;;;;;;;10.76;100.00;102355.69;5341847;27;20382;-86
2022/10/06 02:41:41;;;;;;;12.20;2.55;;;;;;;10.77;100.00;102352.03;5341013;27;20019;-87
2022/10/06 02:44:12;;;;;;;12.10;2.20;;;;;;;10.69;100.00;102353.53;5326357;27;20039;-86
2022/10/06 02:46:44;;;;;;;9.25;2.22;;;;;;;10.73;100.00;102365.72;5339463;27;20020;-86
2022/10/06 02:49:15;;;;;;;15.13;2.60;;;;;;;10.62;100.00;102371.78;5340177;27;20035;-86
2022/10/06 02:51:46;;;;;;;12.48;2.30;;;;;;;10.68;100.00;102362.53;5344145;27;20020;-86
2022/10/06 02:54:18;;;;;;;10.13;2.10;;;;;;;10.63;100.00;102375.31;5341305;27;20024;-87
2022/10/06 02:56:49;;;;;;;14.70;3.38;;;;;;;10.60;100.00;102390.56;5345884;27;20031;-87
2022/10/06 02:59:20;;;;;;;12.07;2.25;;;;;;;10.54;100.00;102391.00;5347270;27;20475;-87
2022/10/06 03:01:52;;;;;;;12.50;2.55;;;;;;;10.50;100.00;102384.16;5335763;27;20027;-88
2022/10/06 03:04:23;;;;;;;14.23;2.47;;;;;;;10.46;100.00;102393.31;5338596;27;20031;-87
2022/10/06 03:06:55;;;;;;;16.58;2.55;;;;;;;10.41;100.00;102395.44;5339599;27;20059;-87
2022/10/06 03:09:26;;;;;;;10.75;2.92;;;;;;;10.30;100.00;102387.28;5340942;27;20050;-87
2022/10/06 03:11:57;;;;;;;14.40;2.58;;;;;;;10.34;100.00;102413.69;5337947;27;20027;-87
2022/10/06 03:14:28;;;;;;;14.77;2.65;;;;;;;10.32;100.00;102412.91;5326124;27;20031;-87
2022/10/06 03:17:00;;;;;;;14.25;2.00;;;;;;;10.20;100.00;102417.25;5326867;27;45097;-87
2022/10/06 03:19:32;;;;;;;16.30;2.65;;;;;;;10.22;100.00;102423.31;5350072;27;20020;-87
2022/10/06 03:22:04;;;;;;;10.70;2.78;;;;;;;10.16;100.00;102423.72;5346765;27;20031;-86
2022/10/06 03:24:35;;;;;;;16.02;3.08;;;;;;;10.06;100.00;102416.41;5344868;27;20024;-87
2022/10/06 03:27:07;;;;;;;15.65;3.03;;;;;;;10.06;100.00;102433.25;5326495;27;20036;-87
2022/10/06 03:29:38;;;;;;;12.32;2.72;;;;;;;10.05;100.00;102436.91;5344676;27;20109;-87
2022/10/06 03:32:09;;;;;;;14.77;2.30;;;;;;;9.93;100.00;102433.22;5346561;27;20036;-87
2022/10/06 03:34:41;;;;;;;10.48;2.28;;;;;;;10.01;100.00;102438.03;5344415;27;20572;-87
2022/10/06 03:37:12;;;;;;;14.20;3.38;;;;;;;9.97;100.00;102447.19;5330821;27;20466;-87
2022/10/06 03:39:44;;;;;;;10.63;2.30;;;;;;;9.89;100.00;102442.38;5331054;27;20020;-87
2022/10/06 03:42:15;;;;;;;13.13;3.25;;;;;;;9.82;100.00;102444.56;5347047;27;20152;-87
2022/10/06 03:44:46;;;;;;;16.27;2.53;;;;;;;9.89;100.00;102447.72;5327440;27;20034;-87
2022/10/06 03:47:18;;;;;;;13.45;2.45;;;;;;;9.88;100.00;102456.66;5347748;27;20027;-87
2022/10/06 03:49:49;;;;;;;12.40;2.15;;;;;;;9.79;100.00;102460.75;5347352;27;20023;-87
2022/10/06 03:52:20;;;;;;;16.08;2.67;;;;;;;9.81;100.00;102458.84;5353402;27;20126;-86
2022/10/06 03:54:52;;;;;;;15.70;2.80;;;;;;;9.82;100.00;102473.88;5350650;27;20039;-87
2022/10/06 03:57:23;;;;;;;17.90;3.13;;;;;;;9.72;100.00;102475.41;5330744;27;20465;-86
2022/10/06 03:59:58;;;;;;;16.75;3.35;;;;;;;9.73;100.00;102481.59;5354826;27;20020;-87
2022/10/06 04:02:29;;;;;;;16.33;2.80;;;;;;;9.64;100.00;102475.03;5336993;27;20104;-86
2022/10/06 04:05:01;;;;;;;12.32;2.67;;;;;;;9.68;100.00;102487.25;5335843;27;20053;-87
2022/10/06 04:07:32;;;;;;;16.98;3.25;;;;;;;9.58;100.00;102478.94;5349342;27;20053;-88
2022/10/06 04:10:04;;;;;;;16.40;3.35;;;;;;;9.56;100.00;102493.34;5333152;27;20040;-88
2022/10/06 04:12:35;;;;;;;12.07;2.72;;;;;;;9.59;100.00;102503.78;5342219;27;20024;-88
2022/10/06 04:15:07;;;;;;;16.38;3.30;;;;;;;9.52;100.00;102503.31;5348493;27;20027;-88
2022/10/06 04:17:38;;;;;;;10.20;2.67;;;;;;;9.49;100.00;102508.00;5351574;27;20019;-88
2022/10/06 04:20:10;;;;;;;17.38;3.17;;;;;;;9.44;100.00;102506.44;5348263;27;20510;-89
2022/10/06 04:22:42;;;;;;;17.65;3.22;;;;;;;9.41;100.00;102517.31;5350247;27;20065;-89
2022/10/06 04:25:13;;;;;;;13.65;2.75;;;;;;;9.45;100.00;102521.47;5343576;27;20028;-89
2022/10/06 04:27:44;;;;;;;17.67;3.20;;;;;;;9.43;100.00;102523.38;5349378;27;20080;-89
2022/10/06 04:30:16;;;;;;;17.70;2.92;;;;;;;9.46;100.00;102522.34;5339463;27;20040;-88
2022/10/06 04:32:47;;;;;;;10.88;2.15;;;;;;;9.50;100.00;102528.31;5343933;27;20118;-86
2022/10/06 04:35:19;;;;;;;15.02;2.92;;;;;;;9.35;100.00;102523.00;5341035;27;20031;-88
2022/10/06 04:37:54;;;;;;;19.88;3.35;;;;;;;9.27;100.00;102533.25;5343253;27;20035;-87
2022/10/06 04:40:26;;;;;;;14.07;2.70;;;;;;;9.20;100.00;102526.56;5341490;27;20028;-87
2022/10/06 04:42:57;;;;;;;19.63;2.85;;;;;;;9.23;100.00;102535.25;5343743;27;20047;-87
2022/10/06 04:45:28;;;;;;;16.05;3.00;;;;;;;9.12;100.00;102537.69;5346987;27;20076;-87
2022/10/06 04:48:00;;;;;;;13.35;3.08;;;;;;;9.04;100.00;102543.47;5348110;27;20033;-88
2022/10/06 04:50:31;;;;;;;17.63;3.00;;;;;;;9.06;100.00;102552.25;5346267;27;20509;-87
2022/10/06 04:53:02;;;;;;;15.20;3.17;;;;;;;9.05;100.00;102550.50;5349330;27;20015;-87
2022/10/06 04:55:33;;;;;;;19.55;4.65;;;;;;;9.03;100.00;102554.22;5348201;27;20031;-87
2022/10/06 04:58:05;;;;;;;19.95;3.80;;;;;;;9.06;100.00;102554.91;5349814;27;20024;-88
2022/10/06 05:00:36;;;;;;;21.23;3.40;;;;;;;8.88;100.00;102548.84;5363984;27;20042;-87
2022/10/06 05:03:07;;;;;;;17.80;3.53;;;;;;;9.00;100.00;102555.25;5373703;27;20016;-87
2022/10/06 05:05:39;;;;;;;18.80;3.28;;;;;;;8.94;100.00;102568.94;5360823;27;20035;-87
2022/10/06 05:08:10;;;;;;;15.45;3.88;;;;;;;8.92;100.00;102575.28;5372223;27;20042;-87
2022/10/06 05:10:41;;;;;;;17.90;3.20;;;;;;;8.85;100.00;102588.94;5355474;27;20063;-88
2022/10/06 05:13:13;;;;;;;19.00;3.72;;;;;;;8.79;100.00;102575.13;5349793;27;20036;-87
2022/10/06 05:15:54;;;;;;;19.35;3.53;;;;;;;8.77;100.00;102574.38;5324874;27;20023;-87
2022/10/06 05:18:27;;;;;;;15.30;3.47;;;;;;;8.85;100.00;102590.72;5342040;27;20346;-87
2022/10/06 05:21:07;;;;;;;19.13;3.67;;;;;;;8.85;100.00;102586.28;5347846;27;20081;-88
2022/10/06 05:23:41;;;;;;;24.58;4.47;;;;;;;8.78;100.00;102600.00;5333367;27;20074;-87
2022/10/06 05:26:21;;;;;;;16.75;3.58;;;;;;;8.79;100.00;102612.38;5344848;27;20023;-87
2022/10/06 05:28:52;;;;;;;22.85;3.33;;;;;;;8.70;100.00;102603.97;5326856;27;20055;-87
2022/10/06 05:31:28;;;;;;;15.65;3.67;;;;;;;8.60;100.00;102602.78;5345495;27;20481;-88
2022/10/06 05:34:00;;;;;;;20.08;4.55;;;;;;;8.64;100.00;102606.13;5348312;27;20054;-87
2022/10/06 05:36:32;;;;;;;17.15;3.75;;;;;;;8.72;100.00;102617.19;5332698;27;20526;-88
2022/10/06 05:39:04;;;;;;;29.83;4.30;;;;;;;8.65;100.00;102622.00;5335080;27;20051;-87
2022/10/06 05:41:36;;;;;;;15.98;3.00;;;;;;;8.59;100.00;102633.00;5326469;27;20112;-87
2022/10/06 05:44:08;;;;;;;15.55;4.40;;;;;;;8.63;100.00;102639.84;5342412;27;20019;-87
2022/10/06 05:46:39;;;;;;;18.30;3.10;;;;;;;8.55;100.00;102636.75;5345721;27;20035;-87
2022/10/06 05:49:11;;;;;;;21.63;3.72;;;;;;;8.43;100.00;102642.75;5344789;27;20038;-87
2022/10/06 05:51:43;;;;;;;17.45;3.17;;;;;;;8.43;100.00;102642.75;5325283;27;20032;-87
2022/10/06 05:54:14;;;;;;;17.90;3.75;;;;;;;8.56;100.00;102657.09;5326247;27;20366;-88
2022/10/06 05:56:45;;;;;;;23.25;3.55;;;;;;;8.57;100.00;102647.31;5324160;27;20024;-88
2022/10/06 05:59:17;;;;;;;16.92;4.85;;;;;;;8.79;100.00;102652.28;5321361;27;20116;-87
2022/10/06 06:01:48;;;;;;;18.60;3.65;;;;;;;8.76;100.00;102641.81;5345658;27;20042;-87
2022/10/06 06:04:19;;;;;;;17.80;3.25;;;;;;;9.00;100.00;102661.72;5324769;27;20031;-87
2022/10/06 06:06:51;;;;;;;24.73;4.75;;;;;;;8.89;100.00;102670.31;5344759;27;20030;-88
2022/10/06 06:09:25;;;;;;;23.15;4.03;;;;;;;9.20;100.00;102681.88;5341970;27;20058;-87
2022/10/06 06:11:57;;;;;;;15.73;3.65;;;;;;;9.19;100.00;102673.97;5345854;27;20053;-87
2022/10/06 06:17:18;;;;;;;17.35;4.30;;;;;;;9.34;100.00;102673.06;5345116;27;20427;-87
2022/10/06 06:19:50;;;;;;;20.02;3.67;;;;;;;9.39;100.00;102684.31;5327625;27;20077;-87
2022/10/06 06:22:21;;;;;;;16.85;3.58;;;;;;;9.21;100.00;102685.41;5340462;27;20036;-83
2022/10/06 06:24:52;;;;;;;24.25;4.50;;;;;;;9.30;100.00;102676.00;5337906;27;20028;-82
2022/10/06 06:27:25;;;;;;;17.20;3.88;;;;;;;9.28;100.00;102678.75;5340666;27;20099;-83
2022/10/06 06:29:57;;;;;;;20.65;3.25;;;;;;;9.23;100.00;102694.16;5341183;27;20043;-87
2022/10/06 06:32:28;;;;;;;19.58;3.50;;;;;;;9.12;100.00;102688.59;5324262;27;20024;-86
2022/10/06 06:34:59;;;;;;;23.08;4.15;;;;;;;9.13;100.00;102691.13;5321682;27;20546;-87
2022/10/06 06:37:32;;;;;;;16.52;3.58;;;;;;;9.02;100.00;102702.41;5317640;27;20098;-87
2022/10/06 06:40:03;;;;;;;16.88;3.17;;;;;;;9.03;100.00;102704.13;5324681;27;20034;-87
2022/10/06 06:42:35;;;;;;;20.00;3.40;;;;;;;9.05;100.00;102701.38;5350781;27;20027;-88
2022/10/06 06:45:08;;;;;;;18.75;5.03;;;;;;;9.06;100.00;102713.75;5342619;27;20032;-86
2022/10/06 06:47:39;;;;;;;23.05;4.32;;;;;;;9.13;100.00;102707.13;5343376;27;20155;-87
2022/10/06 06:50:16;;;;;;;18.50;3.65;;;;;;;9.14;100.00;102730.16;5322416;27;20114;-87
2022/10/06 06:52:47;;;;;;;;;;;;;;;9.31;100.00;102722.97;5341215;27;20031;-87
2022/10/06 06:55:18;;;;;;;16.33;3.43;;;;;;;9.96;100.00;102720.91;5343654;27;20384;-87
2022/10/06 06:57:49;;;;;;;17.13;3.15;;;;;;;10.74;100.00;102733.91;5340926;27;20370;-88
2022/10/06 07:00:22;;;;;;;19.40;3.28;;;;;;;11.14;100.00;102725.16;5324224;27;20031;-87
2022/10/06 07:02:59;;;;;;;14.32;3.33;;;;;;;11.70;100.00;102741.06;5323040;27;20019;-86
2022/10/06 07:05:31;;;;;;;28.42;4.15;;;;;;;12.29;100.00;102746.81;5321496;27;20069;-87
2022/10/06 07:08:02;;;;;;;12.85;3.78;;;;;;;12.44;100.00;102741.34;5323943;27;20016;-87
2022/10/06 07:10:35;;;;;;;15.38;3.50;;;;;;;12.94;100.00;102738.69;5322443;27;20460;-87
2022/10/06 07:13:06;;;;;;;13.40;3.58;;;;;;;13.48;100.00;102740.09;5321121;27;20024;-87
2022/10/06 07:26:59;;;;;;;16.30;4.28;;;;;;;14.69;100.00;102764.78;5345537;27;20048;-87
2022/10/06 07:29:30;;;;;;;15.73;3.58;;;;;;;15.12;100.00;102764.84;5322806;27;20512;-89
2022/10/06 07:32:02;;;;;;;16.90;3.45;;;;;;;15.30;100.00;102767.88;5324117;27;20500;-88
2022/10/06 07:34:33;;;;;;;12.90;3.05;;;;;;;15.79;100.00;102772.84;5323565;27;20038;-88
2022/10/06 07:37:04;;;;;;;13.23;3.63;;;;;;;16.76;100.00;102777.91;5342577;27;20148;-88
2022/10/06 07:39:35;;;;;;;16.75;3.58;;;;;;;16.33;100.00;102790.63;5342696;27;20517;-87
2022/10/06 07:42:12;;;;;;;24.13;5.05;;;;;;;17.12;100.00;102779.19;5321632;27;20149;-85
2022/10/06 07:45:36;;;;;;;13.95;3.92;;;;;;;17.27;100.00;102785.06;5322414;27;20026;-85
2022/10/06 07:47:39;;;;;;;15.43;3.45;;;;;;;17.32;100.00;102790.00;5343961;27;20036;-86
2022/10/06 07:50:11;;;;;;;21.08;3.85;;;;;;;17.65;100.00;102801.41;5363333;27;20103;-85
2022/10/06 07:52:46;;;;;;;15.20;2.95;;;;;;;18.05;100.00;102798.56;5347062;27;20367;-85
2022/10/06 07:55:17;;;;;;;16.65;3.50;;;;;;;17.72;100.00;102800.72;5364488;27;20015;-87
2022/10/06 07:57:50;;;;;;;18.88;4.45;;;;;;;18.47;100.00;102802.75;5350395;27;20036;-84
2022/10/06 08:00:21;;;;;;;20.65;4.20;;;;;;;18.84;100.00;102808.16;5343384;27;20035;-85
2022/10/06 08:02:55;;;;;;;15.73;3.63;;;;;;;18.64;100.00;102795.72;5323572;27;20028;-85
2022/10/06 08:05:27;;;;;;;14.43;3.40;;;;;;;18.24;100.00;102799.53;5325099;27;20024;-82
2022/10/06 08:07:58;;;;;;;14.70;3.53;;;;;;;18.82;100.00;102793.09;5324661;27;20025;-82
2022/10/06 08:10:30;;;;;;;16.05;3.28;;;;;;;18.77;100.00;102811.59;5344472;27;20519;-81
2022/10/06 08:13:17;;;;;;;13.23;3.95;;;;;;;19.04;100.00;102808.94;5346587;27;20073;-88
2022/10/06 08:15:50;;;;;;;14.57;3.85;;;;;;;18.86;100.00;102794.50;5350347;27;20482;-88
2022/10/06 08:18:24;;;;;;;14.68;2.90;;;;;;;18.69;100.00;102829.41;5345899;27;20032;-88
2022/10/06 08:20:55;;;;;;;12.35;3.35;;;;;;;18.76;100.00;102835.09;5322815;27;20620;-88
2022/10/06 08:23:27;;;;;;;11.60;3.13;;;;;;;19.20;100.00;102824.50;5347686;27;20100;-87
2022/10/06 08:25:58;;;;;;;12.75;2.92;;;;;;;19.44;100.00;102836.59;5334969;27;20019;-87
2022/10/06 08:28:31;;;;;;;11.55;2.80;;;;;;;19.60;100.00;102835.91;5333545;27;20401;-89
2022/10/06 08:31:12;;;;;;;10.25;3.00;;;;;;;20.41;100.00;102843.06;5339581;27;20043;-88
2022/10/06 08:33:44;;;;;;;12.13;3.45;;;;;;;21.14;100.00;102825.47;5350706;27;20061;-89
2022/10/06 08:36:20;;;;;;;11.57;2.80;;;;;;;21.64;100.00;102851.75;5356111;27;20023;-88
2022/10/06 08:38:53;;;;;;;17.50;3.40;;;;;;;20.83;100.00;102845.03;5353846;27;20061;-86
2022/10/06 08:41:38;;;;;;;17.20;3.42;;;;;;;20.61;100.00;102865.38;5330588;27;20020;-81
2022/10/06 08:44:17;;;;;;;13.07;3.20;;;;;;;20.70;100.00;102863.59;5338438;27;20027;-81
2022/10/06 08:46:59;;;;;;;12.27;2.80;;;;;;;21.15;100.00;102863.28;5346132;27;20512;-82
2022/10/06 08:49:37;;;;;;;11.95;3.45;;;;;;;20.97;100.00;102867.97;5338016;27;20063;-81
2022/10/06 08:52:44;;;;;;;13.43;2.97;;;;;;;21.81;100.00;102865.34;5341813;27;20023;-82
2022/10/06 08:55:31;;;;;;;11.70;3.55;;;;;;;21.62;100.00;102869.25;5341389;27;20028;-82
2022/10/06 08:58:31;;;;;;;9.73;3.00;;;;;;;21.60;100.00;102874.84;5342651;27;32075;-82
2022/10/06 09:01:25;;;;;;;13.75;3.25;;;;;;;21.73;100.00;102877.06;5341223;27;20020;-82
2022/10/06 09:04:02;;;;;;;13.90;3.03;;;;;;;21.79;100.00;102879.13;5321352;27;20564;-82
2022/10/06 09:07:03;;;;;;;11.85;3.17;;;;;;;22.35;100.00;102887.50;5340674;27;20020;-82
2022/10/06 09:09:58;;;;;;;12.48;2.80;;;;;;;22.53;100.00;102883.69;5340103;27;20873;-82
2022/10/06 09:12:40;;;;;;;11.48;2.60;;;;;;;23.27;100.00;102887.06;5339243;27;20020;-82
2022/10/06 09:15:14;;;;;;;12.77;2.88;;;;;;;23.25;100.00;102894.56;5342437;27;20047;-82
2022/10/06 09:17:54;;;;;;;15.85;3.10;;;;;;;23.82;100.00;102892.56;5341352;27;20401;-82
2022/10/06 09:20:33;;;;;;;12.43;2.95;;;;;;;23.52;100.00;102900.56;5341770;27;20031;-82
2022/10/06 09:23:13;;;;;;;15.52;2.95;;;;;;;22.94;100.00;102908.94;5340992;27;20035;-82
2022/10/06 09:25:45;;;;;;;12.15;2.60;;;;;;;22.60;100.00;102909.22;5342815;27;20038;-83
2022/10/06 09:28:16;;;;;;;12.83;3.23;;;;;;;22.75;100.00;102902.00;5342026;27;20023;-82
2022/10/06 09:30:47;;;;;;;14.60;3.03;;;;;;;22.89;100.00;102914.06;5340599;27;20632;-83
2022/10/06 09:33:23;;;;;;;13.05;3.20;;;;;;;23.86;100.00;102902.06;5341481;27;20146;-83
2022/10/06 09:36:07;;;;;;;10.23;2.42;;;;;;;24.97;100.00;102916.91;5335555;27;20020;-83
2022/10/06 09:38:51;;;;;;;11.90;2.83;;;;;;;26.13;99.58;102910.75;5321935;27;20434;-83
2022/10/06 09:41:29;;;;;;;10.43;3.35;;;;;;;23.94;100.00;102924.66;5342323;27;20030;-82
2022/10/06 09:44:04;;;;;;;10.70;2.95;;;;;;;23.78;100.00;102916.56;5338584;27;20027;-82
2022/10/06 09:46:40;;;;;;;14.30;2.83;;;;;;;23.48;100.00;102919.13;5340330;27;20031;-82
2022/10/06 09:49:11;;;;;;;10.00;2.97;;;;;;;23.38;100.00;102924.78;5339509;27;20043;-82
2022/10/06 09:52:14;;;;;;;11.47;3.03;;;;;;;24.26;100.00;102922.69;5324721;27;20031;-82
2022/10/06 09:55:02;;;;;;;9.75;2.53;;;;;;;25.45;100.00;102925.53;5340434;27;20266;-82
2022/10/06 09:57:36;;;;;;;9.50;2.70;;;;;;;26.38;89.05;102930.31;5322545;27;20119;-83
2022/10/06 10:00:34;;;;;;;12.30;3.40;;;;;;;26.10;89.77;102927.53;5343648;27;20024;-82
2022/10/06 10:03:09;;;;;;;10.50;3.03;;;;;;;24.87;91.45;102925.38;5339860;27;20118;-82
2022/10/06 10:05:55;;;;;;;8.02;2.20;;;;;;;24.24;99.24;102927.50;5338780;27;20028;-82
2022/10/06 10:08:31;;;;;;;13.48;2.97;;;;;;;24.11;96.34;102921.81;5319032;27;20488;-82
2022/10/06 10:12:23;;;;;;;7.80;2.42;;;;;;;23.68;100.00;102922.25;5340103;27;20144;-82
2022/10/06 10:13:59;;;;;;;9.13;2.42;;;;;;;24.42;96.12;102920.88;5340405;27;20052;-82
2022/10/06 10:16:34;;;;;;;7.90;2.20;;;;;;;23.91;94.26;102916.00;5341734;27;20063;-82
2022/10/06 10:19:17;;;;;;;9.97;2.73;;;;;;;25.11;100.00;102917.94;5338715;27;20024;-82
2022/10/06 10:21:48;;;;;;;10.25;2.45;;;;;;;26.46;77.96;102940.28;5339172;27;20027;-82
2022/10/06 10:24:36;;;;;;;10.50;2.53;;;;;;;24.57;89.91;102932.69;5323575;27;20032;-82
2022/10/06 10:27:18;;;;;;;9.35;2.30;;;;;;;24.51;98.58;102936.13;5322105;27;20028;-83
2022/10/06 10:30:00;;;;;;;12.30;2.47;;;;;;;24.60;98.75;102917.84;5340237;27;20063;-83
2022/10/06 10:32:50;;;;;;;8.55;2.00;;;;;;;25.50;100.00;102927.72;5340198;27;20077;-83
2022/10/06 10:35:36;;;;;;;9.70;2.72;;;;;;;26.18;91.84;102911.84;5315561;27;20524;-83
2022/10/06 10:38:20;;;;;;;8.85;2.33;;;;;;;26.29;67.34;102931.50;5341592;27;20036;-82
2022/10/06 10:41:03;;;;;;;6.38;1.88;;;;;;;26.14;81.43;102920.63;5342371;27;20102;-82
2022/10/06 10:43:41;;;;;;;7.38;2.33;;;;;;;25.44;74.59;102926.59;5341630;27;20110;-83
2022/10/06 10:46:21;;;;;;;6.40;2.00;;;;;;;25.45;69.09;102927.44;5341517;27;20019;-82
2022/10/06 10:49:18;;;;;;;6.93;2.08;;;;;;;25.88;82.50;102934.84;5340255;27;20374;-83
2022/10/06 10:51:56;;;;;;;9.10;2.10;;;;;;;25.93;68.76;102930.50;5341748;27;20016;-82
2022/10/06 10:54:56;;;;;;;8.20;2.35;;;;;;;25.56;82.38;102926.97;5340178;27;20485;-82
2022/10/06 10:57:36;;;;;;;8.23;2.30;;;;;;;26.55;70.36;102919.91;5339493;27;20503;-83
2022/10/06 11:00:18;;;;;;;6.63;1.83;;;;;;;27.19;63.91;102918.84;5340270;27;20028;-83
2022/10/06 11:02:55;;;;;;;8.10;2.03;;;;;;;26.82;80.85;102944.75;5339645;27;20473;-82
2022/10/06 11:05:57;;;;;;;9.77;2.22;;;;;;;27.62;78.38;102936.97;5341460;27;20118;-83
2022/10/06 11:09:02;;;;;;;7.82;2.10;;;;;;;28.07;75.12;102932.66;5339987;27;20024;-82
2022/10/06 11:12:05;;;;;;;8.02;2.17;;;;;;;28.75;67.53;102931.59;5340252;27;20279;-83
2022/10/06 11:15:00;;;;;;;6.60;2.17;;;;;;;28.40;71.00;102948.28;5337808;27;20160;-83
2022/10/06 11:17:42;;;;;;;9.77;2.10;;;;;;;28.03;71.28;102938.75;5337759;27;20544;-83
2022/10/06 11:20:37;;;;;;;5.30;1.67;;;;;;;28.75;71.31;102933.47;5337656;27;20020;-83
2022/10/06 11:23:24;;;;;;;9.23;2.13;;;;;;;27.98;75.64;102928.44;5321911;27;20036;-82
2022/10/06 11:26:06;;;;;;;7.68;2.15;;;;;;;26.57;60.80;102936.97;5323214;27;20052;-82
2022/10/06 11:28:46;;;;;;;10.73;2.10;;;;;;;26.00;70.87;102944.28;5340723;27;20497;-82
2022/10/06 11:31:56;;;;;;;10.23;2.25;;;;;;;26.19;69.71;102938.16;5338528;27;20460;-82
2022/10/06 11:34:27;;;;;;;7.38;2.03;;;;;;;26.11;65.60;102940.19;5338887;27;20559;-83
2022/10/06 11:37:12;;;;;;;6.90;2.00;;;;;;;26.66;64.97;102933.06;5327527;27;20028;-82
2022/10/06 11:40:03;;;;;;;9.50;3.10;;;;;;;27.63;69.72;102928.53;5344390;27;20334;-82
2022/10/06 11:43:07;;;;;;;5.70;2.03;;;;;;;28.63;56.91;102923.16;5325562;27;20055;-83
2022/10/06 11:46:01;;;;;;;7.32;1.80;;;;;;;29.09;57.39;102924.09;5308988;27;20040;-83
2022/10/06 11:48:33;;;;;;;6.15;2.03;;;;;;;27.94;54.86;102926.31;5340597;27;20112;-83
2022/10/06 11:51:23;;;;;;;6.57;1.77;;;;;;;30.24;59.89;102926.03;5344971;27;20039;-82
2022/10/06 11:53:55;;;;;;;5.47;1.70;;;;;;;29.63;44.94;102932.97;5353777;27;20390;-83
2022/10/06 11:56:35;;;;;;;8.40;2.08;;;;;;;27.68;71.51;102922.41;5339535;27;20030;-83
2022/10/06 11:59:11;;;;;;;8.15;2.33;;;;;;;28.18;58.20;102911.97;5357122;27;20039;-83
2022/10/06 12:01:46;;;;;;;7.28;2.13;;;;;;;29.59;53.59;102917.97;5347463;27;20482;-83
2022/10/06 12:04:18;;;;;;;6.70;1.80;;;;;;;29.21;61.61;102908.66;5324678;27;20469;-83
2022/10/06 12:06:52;;;;;;;6.95;1.90;;;;;;;29.94;53.67;102917.56;5324627;27;20032;-83
2022/10/06 12:09:32;;;;;;;9.77;1.50;;;;;;;30.82;55.02;102916.59;5343154;27;20052;-83
2022/10/06 12:12:18;;;;;;;8.13;1.60;;;;;;;30.62;46.52;102910.44;5343278;27;20031;-83